Time;durP1;ratioP1;P1;durP2;ratioP2;P2;SDS_P1;SDS_P2;PMS_P1;PMS_P2;Temp;Humidity;BMP_temperature;BMP_pressure;BME280_temperature;BME280_humidity;BME280_pressure;Samples;Min_cycle;Max_cycle;Signal;HPM_P1;HPM_P2
2023/11/19 00:00:11;;;;;;;9.60;8.60;;;;;;;1.35;100.00;98904.40;107097;1279;62023;-81
2023/11/19 00:02:40;;;;;;;9.70;8.70;;;;;;;1.36;100.00;98908.08;106918;1278;60640;-82
2023/11/19 00:05:11;;;;;;;10.40;9.40;;;;;;;1.37;100.00;98908.05;107148;1278;73330;-79
2023/11/19 00:07:42;;;;;;;10.70;8.80;;;;;;;1.38;100.00;98904.52;107103;1277;72877;-80
2023/11/19 00:10:13;;;;;;;10.10;9.10;;;;;;;1.39;100.00;98898.83;106897;1278;72985;-80
2023/11/19 00:12:44;;;;;;;11.40;10.30;;;;;;;1.41;100.00;98896.84;107205;1276;63163;-81
2023/11/19 00:15:12;;;;;;;11.80;10.50;;;;;;;1.44;100.00;98898.36;107074;1278;59263;-81
2023/11/19 00:17:40;;;;;;;10.60;9.50;;;;;;;1.45;100.00;98896.91;107210;1277;74318;-81
2023/11/19 00:20:08;;;;;;;10.40;9.40;;;;;;;1.47;100.00;98892.29;107217;1278;74117;-81
2023/11/19 00:22:35;;;;;;;11.30;10.10;;;;;;;1.48;100.00;98897.92;106870;1278;72425;-81
2023/11/19 00:25:03;;;;;;;10.90;9.90;;;;;;;1.49;100.00;98903.73;107205;1278;59705;-81
2023/11/19 00:27:30;;;;;;;11.70;10.50;;;;;;;1.46;100.00;98907.33;107224;1278;59565;-81
2023/11/19 00:29:58;;;;;;;10.70;9.70;;;;;;;1.43;100.00;98910.91;107229;1278;74995;-81
2023/11/19 00:32:25;;;;;;;11.30;9.70;;;;;;;1.40;100.00;98912.59;107085;1279;74324;-81
2023/11/19 00:34:52;;;;;;;10.30;9.40;;;;;;;1.36;100.00;98910.20;107196;1278;73437;-81
2023/11/19 00:37:19;;;;;;;11.00;9.40;;;;;;;1.33;100.00;98913.46;107223;1278;60298;-81
2023/11/19 00:39:46;;;;;;;10.60;9.60;;;;;;;1.30;100.00;98914.40;107266;1276;60254;-81
2023/11/19 00:42:13;;;;;;;12.00;9.70;;;;;;;1.27;100.00;98920.46;107324;1276;72924;-81
2023/11/19 00:44:41;;;;;;;9.90;8.90;;;;;;;1.24;100.00;98924.08;107359;1276;75482;-80
2023/11/19 00:47:20;;;;;;;11.40;9.40;;;;;;;1.20;100.00;98928.40;107294;1276;71426;-81
2023/11/19 00:49:48;;;;;;;10.40;9.30;;;;;;;1.18;100.00;98927.04;107224;1278;61164;-82
2023/11/19 00:52:18;;;;;;;10.20;8.70;;;;;;;1.16;100.00;98925.32;107358;1276;59005;-81
2023/11/19 00:54:45;;;;;;;9.30;8.40;;;;;;;1.14;100.00;98927.66;107613;1276;74477;-80
2023/11/19 00:57:12;;;;;;;9.90;8.90;;;;;;;1.13;100.00;98925.73;107595;1276;73769;-80
2023/11/19 00:59:42;;;;;;;10.10;9.20;;;;;;;1.11;100.00;98917.33;107574;1278;71531;-80
2023/11/19 01:02:09;;;;;;;10.20;9.00;;;;;;;1.11;100.00;98919.27;107417;1276;59747;-80
2023/11/19 01:04:37;;;;;;;10.20;9.20;;;;;;;1.10;100.00;98911.88;107288;1277;59774;-80
2023/11/19 01:07:05;;;;;;;9.10;8.20;;;;;;;1.08;100.00;98902.90;107224;1276;73193;-81
2023/11/19 01:09:34;;;;;;;10.10;9.20;;;;;;;1.08;100.00;98901.31;107091;1279;74413;-80
2023/11/19 01:12:02;;;;;;;10.10;8.70;;;;;;;1.07;100.00;98890.77;106985;1279;71247;-81
2023/11/19 01:14:30;;;;;;;9.80;8.90;;;;;;;1.07;100.00;98889.89;107167;1277;60214;-80
2023/11/19 01:16:57;;;;;;;10.20;9.00;;;;;;;1.07;100.00;98887.23;107129;1278;60268;-80
2023/11/19 01:19:25;;;;;;;10.10;9.10;;;;;;;1.08;100.00;98881.56;107303;1276;73796;-81
2023/11/19 01:21:52;;;;;;;10.10;9.20;;;;;;;1.10;100.00;98884.19;107267;1276;73030;-81
2023/11/19 01:24:19;;;;;;;10.40;9.50;;;;;;;1.11;100.00;98885.20;107287;1276;71427;-80
2023/11/19 01:26:49;;;;;;;10.10;9.10;;;;;;;1.12;100.00;98882.02;107249;1276;62123;-80
2023/11/19 01:29:16;;;;;;;10.50;9.50;;;;;;;1.13;100.00;98879.01;107067;1276;59342;-80
2023/11/19 01:31:43;;;;;;;10.10;9.00;;;;;;;1.14;100.00;98872.64;107279;1276;73109;-82
2023/11/19 01:34:10;;;;;;;9.30;8.50;;;;;;;1.15;100.00;98872.96;107217;1277;74143;-81
2023/11/19 01:36:37;;;;;;;10.10;9.20;;;;;;;1.16;100.00;98870.80;107189;1277;72491;-80
2023/11/19 01:39:04;;;;;;;10.40;9.10;;;;;;;1.17;100.00;98867.61;107190;1279;59625;-80
2023/11/19 01:41:35;;;;;;;10.30;9.30;;;;;;;1.17;100.00;98862.70;107131;1277;59989;-81
2023/11/19 01:44:03;;;;;;;10.10;9.10;;;;;;;1.16;100.00;98855.28;107216;1276;73977;-80
2023/11/19 01:46:32;;;;;;;10.40;9.20;;;;;;;1.18;100.00;98855.78;107226;1277;75209;-81
2023/11/19 01:49:00;;;;;;;10.50;9.40;;;;;;;1.18;100.00;98851.88;107200;1277;72325;-82
2023/11/19 01:51:27;;;;;;;10.20;9.20;;;;;;;1.19;100.00;98846.91;107019;1277;59908;-80
2023/11/19 01:53:54;;;;;;;12.50;9.80;;;;;;;1.22;100.00;98843.15;107214;1277;59601;-80
2023/11/19 01:56:21;;;;;;;11.10;10.00;;;;;;;1.23;100.00;98845.05;106824;1277;74095;-80
2023/11/19 01:58:48;;;;;;;11.80;10.00;;;;;;;1.23;100.00;98834.30;107238;1277;74779;-80
2023/11/19 02:01:15;;;;;;;10.90;9.70;;;;;;;1.24;100.00;98823.16;107206;1277;71497;-81
2023/11/19 02:03:43;;;;;;;10.70;9.70;;;;;;;1.24;100.00;98818.39;107197;1277;59066;-80
2023/11/19 02:06:10;;;;;;;11.30;10.10;;;;;;;1.24;100.00;98815.02;107015;1279;59914;-80
2023/11/19 02:08:39;;;;;;;12.20;11.00;;;;;;;1.27;100.00;98814.42;107081;1277;74585;-81
2023/11/19 02:11:07;;;;;;;11.50;10.00;;;;;;;1.29;100.00;98812.43;107235;1276;73195;-81
2023/11/19 02:13:36;;;;;;;11.60;10.40;;;;;;;1.31;100.00;98808.17;107195;1277;72615;-81
2023/11/19 02:16:04;;;;;;;11.00;9.90;;;;;;;1.31;100.00;98800.21;107037;1277;61006;-81
2023/11/19 02:18:31;;;;;;;11.30;10.20;;;;;;;1.33;100.00;98792.05;107104;1277;59396;-81
2023/11/19 02:20:59;;;;;;;11.50;10.30;;;;;;;1.34;100.00;98795.02;107228;1277;75767;-82
2023/11/19 02:23:28;;;;;;;12.60;11.10;;;;;;;1.35;100.00;98793.40;107082;1279;75107;-82
2023/11/19 02:26:24;;;;;;;13.80;11.80;;;;;;;1.36;100.00;98792.33;107193;1277;72762;-81
2023/11/19 02:28:52;;;;;;;12.00;10.90;;;;;;;1.39;100.00;98790.86;107086;1277;60120;-80
2023/11/19 02:31:20;;;;;;;12.30;11.00;;;;;;;1.40;100.00;98791.36;107253;1276;60068;-80
2023/11/19 02:33:47;;;;;;;11.60;10.40;;;;;;;1.41;100.00;98789.01;107204;1276;73925;-81
2023/11/19 02:36:14;;;;;;;12.70;11.40;;;;;;;1.42;100.00;98782.82;107233;1276;74305;-81
2023/11/19 02:38:41;;;;;;;13.40;12.00;;;;;;;1.44;100.00;98783.13;107214;1276;72543;-80
2023/11/19 02:41:09;;;;;;;12.80;11.50;;;;;;;1.46;100.00;98784.86;107245;1276;61177;-81
2023/11/19 02:43:37;;;;;;;13.90;12.50;;;;;;;1.45;100.00;98783.97;107283;1276;60297;-83
2023/11/19 02:46:07;;;;;;;13.20;11.10;;;;;;;1.47;100.00;98787.81;107032;1276;75385;-80
2023/11/19 02:48:37;;;;;;;12.10;10.40;;;;;;;1.48;100.00;98792.56;107093;1279;74315;-80
2023/11/19 02:51:09;;;;;;;11.50;10.40;;;;;;;1.48;100.00;98793.80;107220;1277;72459;-81
2023/11/19 02:53:39;;;;;;;12.30;11.20;;;;;;;1.49;100.00;98798.16;107024;1276;59591;-80
2023/11/19 02:56:26;;;;;;;14.00;12.60;;;;;;;1.51;100.00;98800.08;107190;1279;60028;-80
2023/11/19 02:58:54;;;;;;;11.80;10.60;;;;;;;1.52;100.00;98800.04;107051;1279;74364;-81
2023/11/19 03:01:33;;;;;;;12.00;10.80;;;;;;;1.52;100.00;98790.67;107008;1277;73123;-80
2023/11/19 03:04:01;;;;;;;12.50;11.20;;;;;;;1.54;100.00;98792.75;107018;1277;72671;-80
2023/11/19 03:06:29;;;;;;;13.60;12.20;;;;;;;1.55;100.00;98787.98;107250;1277;59976;-80
2023/11/19 03:08:57;;;;;;;12.40;11.10;;;;;;;1.55;100.00;98789.71;107087;1277;60322;-80
2023/11/19 03:11:24;;;;;;;13.60;12.20;;;;;;;1.55;100.00;98796.09;107209;1277;74755;-80
2023/11/19 03:13:51;;;;;;;13.70;12.30;;;;;;;1.55;100.00;98801.20;107116;1276;73617;-81
2023/11/19 03:16:18;;;;;;;14.00;12.60;;;;;;;1.54;100.00;98798.92;107195;1277;73307;-80
2023/11/19 03:18:45;;;;;;;13.20;11.80;;;;;;;1.55;100.00;98797.85;107256;1276;62213;-80
2023/11/19 03:21:12;;;;;;;12.60;11.00;;;;;;;1.55;100.00;98797.14;107141;1276;60290;-80
2023/11/19 03:23:40;;;;;;;12.40;11.10;;;;;;;1.56;100.00;98792.88;107212;1277;73367;-81
2023/11/19 03:26:08;;;;;;;12.90;11.60;;;;;;;1.57;100.00;98788.06;107316;1276;73613;-80
2023/11/19 03:28:35;;;;;;;13.10;11.70;;;;;;;1.59;100.00;98786.27;107312;1276;72398;-81
2023/11/19 03:31:08;;;;;;;12.10;10.90;;;;;;;1.61;100.00;98781.27;107152;1276;59671;-81
2023/11/19 03:33:37;;;;;;;9.00;7.90;;;;;;;1.63;100.00;98769.56;107159;1276;59322;-81
2023/11/19 03:36:06;;;;;;;12.20;10.90;;;;;;;1.65;100.00;98761.77;107302;1276;73842;-81
2023/11/19 03:38:33;;;;;;;12.90;11.10;;;;;;;1.67;100.00;98745.45;107252;1277;74410;-81
2023/11/19 03:41:00;;;;;;;12.40;10.30;;;;;;;1.69;100.00;98737.08;107464;1278;71451;-81
2023/11/19 03:43:27;;;;;;;11.20;10.20;;;;;;;1.71;100.00;98733.84;107462;1278;61015;-81
2023/11/19 03:45:54;;;;;;;11.70;10.40;;;;;;;1.73;100.00;98731.51;107412;1278;59027;-81
2023/11/19 03:48:22;;;;;;;10.50;9.40;;;;;;;1.74;100.00;98717.87;107238;1278;73660;-81
2023/11/19 03:50:49;;;;;;;12.10;10.60;;;;;;;1.75;100.00;98716.42;107038;1279;74788;-81
2023/11/19 03:53:16;;;;;;;14.50;12.20;;;;;;;1.77;100.00;98719.56;107211;1279;72560;-81
2023/11/19 03:55:43;;;;;;;13.00;11.70;;;;;;;1.76;100.00;98719.05;107218;1278;59854;-80
2023/11/19 03:58:10;;;;;;;15.80;13.60;;;;;;;1.77;100.00;98715.33;107117;1279;61309;-80
2023/11/19 04:00:37;;;;;;;13.30;11.90;;;;;;;1.76;100.00;98709.33;107235;1278;74070;-81
2023/11/19 04:03:04;;;;;;;15.10;12.30;;;;;;;1.76;100.00;98707.92;107302;1278;74552;-82
2023/11/19 04:05:31;;;;;;;12.60;11.40;;;;;;;1.76;100.00;98706.88;107263;1278;72649;-81
2023/11/19 04:07:58;;;;;;;13.00;11.70;;;;;;;1.76;100.00;98700.69;107347;1279;61116;-80
2023/11/19 04:10:27;;;;;;;13.80;11.30;;;;;;;1.77;100.00;98696.59;107516;1279;59132;-80
2023/11/19 04:12:56;;;;;;;12.50;11.20;;;;;;;1.79;100.00;98695.84;107324;1278;74489;-81
2023/11/19 04:15:24;;;;;;;12.00;10.50;;;;;;;1.79;100.00;98681.52;107227;1276;76088;-81
2023/11/19 04:17:51;;;;;;;13.20;11.80;;;;;;;1.82;100.00;98681.29;107187;1278;72411;-81
2023/11/19 04:20:18;;;;;;;12.30;11.00;;;;;;;1.83;100.00;98680.55;107216;1276;61088;-80
2023/11/19 04:22:46;;;;;;;13.00;11.60;;;;;;;1.83;100.00;98678.42;107223;1276;59294;-81
2023/11/19 04:25:13;;;;;;;13.10;11.80;;;;;;;1.84;100.00;98679.46;107214;1276;74469;-82
2023/11/19 04:27:41;;;;;;;12.50;11.20;;;;;;;1.85;100.00;98677.14;107252;1276;73090;-80
2023/11/19 04:30:10;;;;;;;12.60;11.30;;;;;;;1.85;100.00;98674.15;106930;1276;71395;-80
2023/11/19 04:32:38;;;;;;;11.40;10.20;;;;;;;1.86;100.00;98671.46;107029;1276;61288;-80
2023/11/19 04:35:07;;;;;;;11.30;10.10;;;;;;;1.86;100.00;98671.81;107496;1276;60001;-79
2023/11/19 04:37:34;;;;;;;12.10;10.90;;;;;;;1.86;100.00;98673.94;107491;1276;74542;-78
2023/11/19 04:40:02;;;;;;;13.20;11.80;;;;;;;1.87;100.00;98668.42;107314;1276;73143;-80
2023/11/19 04:42:31;;;;;;;12.90;11.60;;;;;;;1.88;100.00;98665.40;107436;1276;73456;-80
2023/11/19 04:44:59;;;;;;;15.00;13.50;;;;;;;1.89;100.00;98662.55;107483;1276;61158;-79
2023/11/19 04:47:26;;;;;;;15.70;14.20;;;;;;;1.89;100.00;98661.30;107150;1276;61985;-78
2023/11/19 04:49:53;;;;;;;16.20;14.50;;;;;;;1.91;100.00;98663.37;107305;1276;75659;-79
2023/11/19 04:52:20;;;;;;;16.50;14.90;;;;;;;1.92;100.00;98654.66;107152;1276;74261;-80
2023/11/19 04:54:48;;;;;;;17.80;16.10;;;;;;;1.94;100.00;98646.85;107279;1276;72412;-80
2023/11/19 04:57:15;;;;;;;16.20;14.10;;;;;;;1.95;100.00;98648.56;107034;1276;59751;-80
2023/11/19 04:59:42;;;;;;;14.00;12.60;;;;;;;1.97;100.00;98646.41;107267;1276;60162;-81
2023/11/19 05:02:09;;;;;;;14.50;12.50;;;;;;;1.98;100.00;98644.77;107278;1276;74023;-81
2023/11/19 05:04:37;;;;;;;14.70;13.20;;;;;;;1.99;100.00;98652.69;107239;1277;74214;-81
2023/11/19 05:07:04;;;;;;;14.20;12.10;;;;;;;2.00;100.00;98658.48;107505;1276;71288;-80
2023/11/19 05:09:31;;;;;;;15.20;13.40;;;;;;;2.01;100.00;98660.56;107610;1276;61119;-81
2023/11/19 05:11:58;;;;;;;14.50;12.30;;;;;;;2.02;100.00;98660.20;107590;1277;59239;-81
2023/11/19 05:14:25;;;;;;;16.80;14.20;;;;;;;2.03;100.00;98655.56;107411;1277;73771;-81
2023/11/19 05:16:55;;;;;;;13.10;11.90;;;;;;;2.05;100.00;98654.65;107614;1276;73670;-82
2023/11/19 05:19:22;;;;;;;13.60;12.20;;;;;;;2.05;100.00;98650.92;106994;1276;70766;-82
2023/11/19 05:21:52;;;;;;;14.60;13.10;;;;;;;2.06;100.00;98647.89;107045;1276;61029;-81
2023/11/19 05:24:19;;;;;;;15.10;13.40;;;;;;;2.07;100.00;98641.33;107218;1276;61858;-81
2023/11/19 05:26:46;;;;;;;15.70;13.70;;;;;;;2.08;100.00;98640.77;107232;1276;74777;-80
2023/11/19 05:29:14;;;;;;;14.30;12.90;;;;;;;2.08;100.00;98638.83;107218;1276;74079;-81
2023/11/19 05:31:41;;;;;;;14.40;12.70;;;;;;;2.08;100.00;98634.58;107012;1277;72723;-81
2023/11/19 05:34:11;;;;;;;13.10;11.80;;;;;;;2.07;100.00;98639.38;107052;1276;62107;-81
2023/11/19 05:36:39;;;;;;;12.70;11.40;;;;;;;2.06;100.00;98641.34;107168;1277;59478;-82
2023/11/19 05:39:06;;;;;;;13.60;12.00;;;;;;;2.06;100.00;98638.89;107001;1279;74616;-81
2023/11/19 05:41:34;;;;;;;12.60;11.30;;;;;;;2.05;100.00;98634.33;107029;1277;72664;-81
2023/11/19 05:44:01;;;;;;;14.30;12.70;;;;;;;2.05;100.00;98627.09;106986;1277;72421;-81
2023/11/19 05:46:28;;;;;;;14.70;12.90;;;;;;;2.05;100.00;98623.20;107228;1277;60013;-81
2023/11/19 05:48:55;;;;;;;14.00;12.60;;;;;;;2.04;100.00;98623.92;106941;1277;60324;-81
2023/11/19 05:51:23;;;;;;;14.30;11.90;;;;;;;2.05;100.00;98624.26;107186;1280;75217;-81
2023/11/19 05:53:51;;;;;;;13.70;12.40;;;;;;;2.05;100.00;98622.31;107095;1277;75121;-82
2023/11/19 05:56:21;;;;;;;13.50;12.10;;;;;;;2.05;100.00;98621.08;107173;1277;72411;-82
2023/11/19 05:58:51;;;;;;;12.80;11.40;;;;;;;2.06;100.00;98616.64;107221;1277;60948;-82
2023/11/19 06:01:18;;;;;;;14.20;12.70;;;;;;;2.06;100.00;98613.64;107138;1277;59363;-80
2023/11/19 06:03:49;;;;;;;14.70;13.20;;;;;;;2.06;100.00;98613.78;107387;1279;74480;-81
2023/11/19 06:06:17;;;;;;;12.10;10.80;;;;;;;2.07;100.00;98611.64;107151;1280;73125;-81
2023/11/19 06:08:44;;;;;;;12.70;11.40;;;;;;;2.08;100.00;98609.86;107131;1279;72706;-82
2023/11/19 06:11:18;;;;;;;12.60;11.40;;;;;;;2.09;100.00;98608.59;107275;1277;61161;-81
2023/11/19 06:13:46;;;;;;;12.80;11.40;;;;;;;2.09;100.00;98605.73;107202;1278;61167;-81
2023/11/19 06:16:13;;;;;;;12.60;11.30;;;;;;;2.10;100.00;98605.39;107171;1279;73164;-81
2023/11/19 06:18:41;;;;;;;13.60;12.10;;;;;;;2.10;100.00;98608.54;107221;1277;74173;-81
2023/11/19 06:21:08;;;;;;;13.30;11.80;;;;;;;2.12;100.00;98602.66;107350;1276;72956;-81
2023/11/19 06:23:35;;;;;;;12.80;11.50;;;;;;;2.13;100.00;98598.57;107205;1277;60939;-80
2023/11/19 06:26:02;;;;;;;13.20;11.80;;;;;;;2.14;100.00;98596.77;107096;1277;60519;-82
2023/11/19 06:28:29;;;;;;;12.80;11.20;;;;;;;2.14;100.00;98592.54;107228;1277;73153;-82
2023/11/19 06:30:57;;;;;;;14.70;13.30;;;;;;;2.13;100.00;98587.77;107188;1278;74237;-81
2023/11/19 06:33:25;;;;;;;12.90;11.60;;;;;;;2.12;100.00;98584.64;107176;1276;72649;-81
2023/11/19 06:35:52;;;;;;;12.70;11.50;;;;;;;2.10;100.00;98593.52;107182;1279;61241;-81
2023/11/19 06:38:19;;;;;;;12.90;11.30;;;;;;;2.09;100.00;98593.91;107192;1279;60172;-81
2023/11/19 06:40:46;;;;;;;12.40;11.10;;;;;;;2.10;100.00;98590.72;107203;1277;74928;-81
2023/11/19 06:43:15;;;;;;;11.60;9.90;;;;;;;2.10;100.00;98584.89;107187;1276;72897;-81
2023/11/19 06:45:43;;;;;;;13.10;11.20;;;;;;;2.10;100.00;98578.87;107175;1277;71672;-81
2023/11/19 06:48:10;;;;;;;12.30;11.00;;;;;;;2.11;100.00;98577.77;106940;1278;61329;-82
2023/11/19 06:50:37;;;;;;;16.10;12.70;;;;;;;2.11;100.00;98575.64;107093;1278;61437;-82
2023/11/19 06:53:06;;;;;;;13.10;11.80;;;;;;;2.12;100.00;98576.89;107173;1276;74618;-82
2023/11/19 06:55:33;;;;;;;12.30;11.10;;;;;;;2.12;100.00;98579.16;107075;1280;74528;-81
2023/11/19 06:58:02;;;;;;;11.60;10.50;;;;;;;2.12;100.00;98577.05;107187;1277;71526;-81
2023/11/19 07:00:32;;;;;;;11.50;10.40;;;;;;;2.12;100.00;98573.52;107028;1278;61291;-81
2023/11/19 07:02:59;;;;;;;10.10;9.10;;;;;;;2.12;100.00;98570.66;106994;1276;60421;-81
2023/11/19 07:05:28;;;;;;;13.30;9.80;;;;;;;2.13;100.00;98573.30;107194;1279;74665;-82
2023/11/19 07:07:55;;;;;;;11.40;10.20;;;;;;;2.14;100.00;98578.21;107118;1276;74369;-81
2023/11/19 07:10:23;;;;;;;10.80;9.60;;;;;;;2.16;100.00;98581.30;107183;1276;72682;-82
2023/11/19 07:12:50;;;;;;;11.30;10.10;;;;;;;2.19;100.00;98575.41;107075;1279;61183;-82
2023/11/19 07:15:17;;;;;;;11.80;10.60;;;;;;;2.22;100.00;98566.48;106992;1277;59721;-81
2023/11/19 07:17:45;;;;;;;11.30;10.10;;;;;;;2.27;100.00;98557.98;107189;1276;75676;-81
2023/11/19 07:20:15;;;;;;;12.60;9.70;;;;;;;2.31;100.00;98549.73;107233;1276;73477;-83
2023/11/19 07:22:45;;;;;;;10.70;9.60;;;;;;;2.35;100.00;98550.15;107240;1276;73412;-82
2023/11/19 07:25:15;;;;;;;9.20;8.00;;;;;;;2.38;100.00;98549.34;107246;1276;59758;-81
2023/11/19 07:27:42;;;;;;;10.00;9.00;;;;;;;2.40;100.00;98548.02;107221;1276;60040;-81
2023/11/19 07:30:10;;;;;;;9.10;8.20;;;;;;;2.42;100.00;98539.12;107200;1276;73972;-81
2023/11/19 07:32:38;;;;;;;9.90;8.70;;;;;;;2.44;100.00;98535.85;107163;1281;73393;-81
2023/11/19 07:35:06;;;;;;;10.20;9.20;;;;;;;2.47;100.00;98531.70;107189;1278;71483;-81
2023/11/19 07:37:34;;;;;;;11.90;10.80;;;;;;;2.49;100.00;98524.91;107184;1278;60824;-81
2023/11/19 07:40:01;;;;;;;11.50;10.40;;;;;;;2.50;100.00;98517.45;106924;1280;59139;-81
2023/11/19 07:42:28;;;;;;;11.10;10.00;;;;;;;2.50;100.00;98521.49;107092;1279;74431;-81
2023/11/19 07:44:57;;;;;;;10.90;9.90;;;;;;;2.49;100.00;98511.11;107213;1280;74092;-81
2023/11/19 07:47:24;;;;;;;11.10;10.10;;;;;;;2.49;100.00;98503.55;107190;1278;72641;-82
2023/11/19 07:49:51;;;;;;;12.10;10.90;;;;;;;2.46;100.00;98502.40;107196;1279;59842;-82
2023/11/19 07:52:17;;;;;;;12.30;11.00;;;;;;;2.44;100.00;98495.94;107432;1278;59035;-80
2023/11/19 07:54:48;;;;;;;14.30;12.80;;;;;;;2.43;100.00;98494.91;107049;1277;73424;-81
2023/11/19 07:57:15;;;;;;;13.20;11.80;;;;;;;2.43;100.00;98498.27;107190;1278;74277;-82
2023/11/19 07:59:42;;;;;;;8.60;7.70;;;;;;;2.44;100.00;98494.16;107185;1277;71486;-81
2023/11/19 08:02:09;;;;;;;8.40;7.50;;;;;;;2.46;100.00;98495.50;107198;1277;62232;-81
2023/11/19 08:04:39;;;;;;;8.40;7.60;;;;;;;2.48;100.00;98496.66;107045;1278;60336;-82
2023/11/19 08:07:07;;;;;;;9.10;8.10;;;;;;;2.51;100.00;98495.31;107027;1277;74966;-81
2023/11/19 08:09:35;;;;;;;7.40;6.60;;;;;;;2.56;100.00;98500.48;107222;1276;74463;-82
2023/11/19 08:12:03;;;;;;;5.80;5.20;;;;;;;2.56;100.00;98505.41;107185;1277;71723;-81
2023/11/19 08:14:32;;;;;;;9.10;7.10;;;;;;;2.56;100.00;98510.38;107193;1276;61145;-83
2023/11/19 08:16:59;;;;;;;7.30;6.30;;;;;;;2.56;100.00;98517.27;107226;1277;60998;-82
2023/11/19 08:19:26;;;;;;;8.10;7.40;;;;;;;2.57;100.00;98520.05;107271;1276;73463;-82
2023/11/19 08:21:57;;;;;;;7.30;6.60;;;;;;;2.60;100.00;98521.02;107109;1279;74037;-81
2023/11/19 08:24:24;;;;;;;8.20;7.30;;;;;;;2.62;100.00;98522.19;107213;1276;71700;-81
2023/11/19 08:26:51;;;;;;;8.10;7.30;;;;;;;2.65;100.00;98521.55;107225;1276;61804;-81
2023/11/19 08:29:21;;;;;;;8.10;7.30;;;;;;;2.67;100.00;98516.68;107199;1276;59131;-81
2023/11/19 08:31:48;;;;;;;8.10;6.90;;;;;;;2.70;100.00;98516.41;107223;1276;76014;-81
2023/11/19 08:34:15;;;;;;;9.50;6.30;;;;;;;2.74;100.00;98523.17;107215;1277;74339;-81
2023/11/19 08:36:42;;;;;;;6.70;6.10;;;;;;;2.77;100.00;98522.02;107143;1276;73328;-82
2023/11/19 08:39:09;;;;;;;8.30;7.00;;;;;;;2.78;100.00;98524.77;107267;1276;60596;-81
2023/11/19 08:41:38;;;;;;;7.50;6.70;;;;;;;2.80;100.00;98528.44;107343;1276;59470;-81
2023/11/19 08:44:05;;;;;;;7.00;6.40;;;;;;;2.83;100.00;98531.16;107448;1277;73556;-81
2023/11/19 08:46:32;;;;;;;7.20;6.50;;;;;;;2.84;100.00;98529.35;107417;1276;72877;-81
2023/11/19 08:49:00;;;;;;;7.70;5.90;;;;;;;2.86;100.00;98524.00;107307;1276;71445;-82
2023/11/19 08:51:28;;;;;;;8.20;7.40;;;;;;;2.87;100.00;98525.16;107289;1276;59538;-81
2023/11/19 08:53:55;;;;;;;19.20;13.30;;;;;;;2.90;100.00;98525.08;107265;1276;60688;-83
2023/11/19 08:56:23;;;;;;;17.00;11.60;;;;;;;2.93;100.00;98515.41;107108;1276;74296;-81
2023/11/19 08:58:50;;;;;;;35.20;23.20;;;;;;;2.96;100.00;98513.36;107239;1276;73910;-83
2023/11/19 09:01:17;;;;;;;17.80;14.30;;;;;;;2.98;100.00;98508.84;107034;1276;72689;-81
2023/11/19 09:03:44;;;;;;;8.00;6.80;;;;;;;3.01;100.00;98509.27;107101;1276;60139;-81
2023/11/19 09:06:12;;;;;;;8.00;7.00;;;;;;;3.04;100.00;98501.20;106873;1277;59552;-82
2023/11/19 09:08:39;;;;;;;8.00;7.20;;;;;;;3.08;100.00;98492.76;107187;1276;74392;-81
2023/11/19 09:11:08;;;;;;;7.70;6.60;;;;;;;3.12;100.00;98469.58;107211;1276;73367;-81
2023/11/19 09:13:35;;;;;;;6.80;5.90;;;;;;;3.16;100.00;98453.70;107259;1276;72503;-82
2023/11/19 09:16:03;;;;;;;6.50;5.90;;;;;;;3.19;100.00;98449.52;107131;1277;62469;-82
2023/11/19 09:18:31;;;;;;;6.10;5.50;;;;;;;3.22;100.00;98443.20;107249;1276;60015;-81
2023/11/19 09:20:59;;;;;;;5.40;4.90;;;;;;;3.25;100.00;98434.05;106987;1276;73702;-81
2023/11/19 09:23:27;;;;;;;8.10;7.20;;;;;;;3.30;100.00;98428.20;107120;1276;73806;-82
2023/11/19 09:25:57;;;;;;;6.40;5.60;;;;;;;3.35;100.00;98425.52;107449;1276;71510;-82
2023/11/19 09:28:24;;;;;;;7.20;5.70;;;;;;;3.40;100.00;98416.84;107504;1276;59624;-82
2023/11/19 09:35:32;;;;;;;6.80;6.10;;;;;;;3.52;100.00;98398.64;106522;1288;73789;-82
2023/11/19 09:37:59;;;;;;;7.70;6.40;;;;;;;3.56;99.98;98397.97;106166;1288;73281;-80
2023/11/19 09:40:29;;;;;;;6.00;5.40;;;;;;;3.59;99.08;98402.23;106247;1285;74315;-80
2023/11/19 09:54:49;;;;;;;7.00;6.30;;;;;;;3.66;97.67;98423.92;107353;1276;73371;-81
2023/11/19 09:57:17;;;;;;;6.90;6.20;;;;;;;3.66;97.51;98423.75;107316;1275;71279;-81
2023/11/19 09:59:45;;;;;;;6.90;6.20;;;;;;;3.67;97.42;98427.80;107069;1277;62104;-82
2023/11/19 10:02:14;;;;;;;7.30;6.60;;;;;;;3.67;97.65;98434.88;107208;1277;60162;-80
2023/11/19 10:04:42;;;;;;;8.70;6.60;;;;;;;3.68;97.42;98436.44;107083;1276;73709;-81
2023/11/19 10:07:09;;;;;;;8.70;7.20;;;;;;;3.68;97.89;98430.05;107248;1276;74079;-80
2023/11/19 10:09:36;;;;;;;8.50;7.50;;;;;;;3.70;97.76;98420.42;107167;1277;70943;-81
2023/11/19 10:12:04;;;;;;;7.90;6.90;;;;;;;3.71;96.79;98406.36;107150;1277;61339;-81
2023/11/19 10:14:31;;;;;;;7.60;6.80;;;;;;;3.72;96.28;98395.53;107246;1276;60469;-80
2023/11/19 10:16:59;;;;;;;7.10;6.40;;;;;;;3.74;96.61;98385.55;107185;1277;74379;-82
2023/11/19 10:19:26;;;;;;;9.20;7.80;;;;;;;3.75;96.23;98379.30;107254;1277;73149;-80
2023/11/19 10:21:53;;;;;;;8.60;7.80;;;;;;;3.77;96.06;98375.86;107234;1276;71204;-82
2023/11/19 10:24:32;;;;;;;7.50;6.70;;;;;;;3.78;95.53;98373.31;107303;1275;61092;-81
2023/11/19 10:27:05;;;;;;;7.00;6.10;;;;;;;3.79;95.50;98361.21;107327;1277;60558;-82
2023/11/19 10:29:32;;;;;;;6.50;5.90;;;;;;;3.83;95.61;98357.48;107365;1276;73894;-82
2023/11/19 10:31:59;;;;;;;6.50;5.90;;;;;;;3.84;95.55;98351.25;107323;1276;72526;-81
2023/11/19 10:34:46;;;;;;;7.30;6.60;;;;;;;3.87;96.09;98348.64;107185;1277;73709;-82
2023/11/19 10:37:32;;;;;;;7.90;7.20;;;;;;;3.91;96.87;98348.47;107301;1277;59976;-80
2023/11/19 10:40:00;;;;;;;8.00;6.80;;;;;;;3.97;96.36;98340.62;107328;1277;60296;-81
2023/11/19 10:42:27;;;;;;;8.90;7.70;;;;;;;4.01;95.83;98329.66;107232;1276;75623;-81
2023/11/19 10:44:54;;;;;;;7.80;7.00;;;;;;;4.03;95.61;98326.55;107339;1275;74334;-80
2023/11/19 10:47:22;;;;;;;8.30;7.40;;;;;;;4.03;95.08;98321.94;107310;1276;71766;-80
2023/11/19 10:49:55;;;;;;;7.40;6.70;;;;;;;4.02;94.31;98319.34;107195;1275;60848;-81
2023/11/19 10:52:22;;;;;;;11.20;8.00;;;;;;;3.97;94.12;98318.27;107240;1276;59325;-81
2023/11/19 10:54:51;;;;;;;8.40;6.50;;;;;;;3.94;93.98;98315.40;107265;1276;73589;-81
2023/11/19 10:57:21;;;;;;;9.30;7.70;;;;;;;3.90;94.42;98318.23;107406;1276;73521;-82
2023/11/19 10:59:49;;;;;;;6.90;6.20;;;;;;;3.87;94.94;98314.48;107243;1277;73721;-81
2023/11/19 11:02:21;;;;;;;7.40;6.70;;;;;;;3.84;95.14;98315.85;107323;1276;59667;-81
2023/11/19 11:04:48;;;;;;;8.20;7.30;;;;;;;3.81;95.58;98306.39;107315;1275;59504;-82
2023/11/19 11:07:18;;;;;;;7.40;6.70;;;;;;;3.80;95.77;98304.15;107166;1276;74538;-80
2023/11/19 11:09:48;;;;;;;8.80;7.90;;;;;;;3.80;95.83;98301.69;107208;1276;74982;-81
2023/11/19 11:12:15;;;;;;;8.40;7.20;;;;;;;3.79;96.12;98292.70;107349;1277;72787;-80
2023/11/19 11:14:45;;;;;;;9.10;8.20;;;;;;;3.79;96.29;98282.58;107225;1276;61980;-80
2023/11/19 11:17:12;;;;;;;8.60;7.40;;;;;;;3.81;96.47;98275.44;107360;1275;59717;-79
2023/11/19 11:19:40;;;;;;;10.80;7.80;;;;;;;3.82;96.62;98273.80;107352;1276;73494;-80
2023/11/19 11:22:07;;;;;;;8.90;7.30;;;;;;;3.83;96.43;98276.04;107073;1276;73580;-81
2023/11/19 11:24:51;;;;;;;8.20;7.50;;;;;;;3.83;96.65;98275.15;107308;1277;73252;-80
2023/11/19 11:27:50;;;;;;;9.50;6.50;;;;;;;3.86;96.85;98273.09;107314;1276;59878;-80
2023/11/19 11:31:02;;;;;;;7.70;6.90;;;;;;;3.86;96.86;98265.83;106967;1277;60284;-80
2023/11/19 11:33:35;;;;;;;7.30;6.70;;;;;;;3.87;96.62;98261.34;106507;1286;74799;-79
2023/11/19 11:36:13;;;;;;;7.70;7.00;;;;;;;3.85;96.30;98252.02;106422;1285;74410;-80
2023/11/19 11:38:42;;;;;;;9.00;7.10;;;;;;;3.81;96.31;98242.81;106389;1286;73616;-80